Time;durP1;ratioP1;P1;durP2;ratioP2;P2;SDS_P1;SDS_P2;PMS_P1;PMS_P2;Temp;Humidity;BMP_temperature;BMP_pressure;BME280_temperature;BME280_humidity;BME280_pressure;Samples;Min_cycle;Max_cycle;Signal;HPM_P1;HPM_P2
2022/09/29 00:01:28;;;;;;;2.45;1.80;;;7.50;99.90;;;;;;4996623;28;20050;-68
2022/09/29 00:03:54;;;;;;;2.15;1.95;;;7.80;99.90;;;;;;4996628;28;20057;-68
2022/09/29 00:06:20;;;;;;;2.58;2.20;;;7.80;99.90;;;;;;4996565;28;20043;-68
2022/09/29 00:08:45;;;;;;;2.20;2.00;;;7.50;99.90;;;;;;4995697;28;20077;-68
2022/09/29 00:11:16;;;;;;;2.58;2.38;;;8.00;99.90;;;;;;4997190;28;20046;-68
2022/09/29 00:13:43;;;;;;;2.47;2.15;;;8.50;99.90;;;;;;4996386;28;20450;-68
2022/09/29 00:16:09;;;;;;;3.17;2.42;;;7.90;99.90;;;;;;4995496;28;20093;-68
2022/09/29 00:18:36;;;;;;;2.60;2.20;;;7.30;99.90;;;;;;4996181;28;20042;-68
2022/09/29 00:21:04;;;;;;;2.28;2.08;;;7.60;99.90;;;;;;4995327;28;20049;-69
2022/09/29 00:23:31;;;;;;;3.58;2.60;;;7.40;99.90;;;;;;4996118;28;20466;-69
2022/09/29 00:26:11;;;;;;;2.55;2.35;;;7.90;99.90;;;;;;4996392;28;20042;-69
2022/09/29 00:28:41;;;;;;;3.80;2.67;;;7.40;99.90;;;;;;4996048;28;20501;-69
2022/09/29 00:31:09;;;;;;;3.92;2.53;;;7.60;99.90;;;;;;4996237;28;20042;-69
2022/09/29 00:33:36;;;;;;;3.63;2.22;;;7.80;99.90;;;;;;4995598;28;20058;-69
2022/09/29 00:36:08;;;;;;;3.10;2.47;;;7.30;99.90;;;;;;4995794;28;20431;-69
2022/09/29 00:38:35;;;;;;;2.60;2.40;;;7.70;99.90;;;;;;4994390;28;20490;-69
2022/09/29 00:41:01;;;;;;;3.60;3.00;;;7.70;99.90;;;;;;4996078;28;20050;-68
2022/09/29 00:44:05;;;;;;;3.13;2.53;;;7.50;99.90;;;;;;4995784;28;20046;-69
2022/09/29 00:46:30;;;;;;;4.50;2.78;;;7.30;99.90;;;;;;4995801;28;20093;-69
2022/09/29 00:48:59;;;;;;;4.35;3.22;;;7.40;99.90;;;;;;4994655;28;20086;-69
2022/09/29 00:51:28;;;;;;;3.35;3.05;;;7.30;99.90;;;;;;4994952;28;20058;-69
2022/09/29 00:53:55;;;;;;;5.93;3.40;;;7.60;99.90;;;;;;4995805;28;20042;-69
2022/09/29 00:56:21;;;;;;;4.03;3.50;;;7.50;99.90;;;;;;4995678;28;20058;-69
2022/09/29 00:58:56;;;;;;;4.40;3.15;;;7.30;99.90;;;;;;4994271;28;20042;-69
2022/09/29 01:01:23;;;;;;;3.85;3.47;;;7.40;99.90;;;;;;4977751;28;20046;-68
2022/09/29 01:03:55;;;;;;;4.18;3.78;;;7.60;99.90;;;;;;4995497;28;20054;-69
2022/09/29 01:06:29;;;;;;;3.95;3.55;;;7.60;99.90;;;;;;4995634;28;20092;-68
2022/09/29 01:09:17;;;;;;;4.53;3.30;;;7.80;99.90;;;;;;4993953;28;20057;-68
2022/09/29 01:11:42;;;;;;;3.67;3.38;;;7.40;99.90;;;;;;4995599;28;20042;-68
2022/09/29 01:14:09;;;;;;;3.60;3.30;;;7.50;99.90;;;;;;4994465;28;20043;-69
2022/09/29 01:16:36;;;;;;;4.72;3.20;;;7.60;99.90;;;;;;4995566;28;20117;-68
2022/09/29 01:19:22;;;;;;;4.95;3.60;;;7.40;99.90;;;;;;4995331;28;20514;-68
2022/09/29 01:22:33;;;;;;;3.85;2.78;;;7.30;99.90;;;;;;4995034;28;20050;-69
2022/09/29 01:25:14;;;;;;;3.17;2.88;;;7.30;99.90;;;;;;4964798;28;20050;-69
2022/09/29 01:27:51;;;;;;;5.72;3.30;;;7.30;99.90;;;;;;4995030;28;20177;-68
2022/09/29 01:30:22;;;;;;;3.95;3.47;;;7.40;99.90;;;;;;4991769;28;20403;-69
2022/09/29 01:33:08;;;;;;;4.15;3.30;;;7.40;99.90;;;;;;4974328;28;20046;-69
2022/09/29 01:35:56;;;;;;;6.18;3.58;;;7.40;99.90;;;;;;4975431;28;20058;-69
2022/09/29 01:38:50;;;;;;;5.00;3.30;;;7.30;99.90;;;;;;4973898;28;20050;-69
2022/09/29 01:41:47;;;;;;;3.95;3.55;;;7.20;99.90;;;;;;4974452;28;20070;-68
2022/09/29 01:44:46;;;;;;;4.40;3.40;;;7.20;99.90;;;;;;4975300;28;20054;-69
2022/09/29 01:47:27;;;;;;;4.22;3.03;;;7.10;99.90;;;;;;4975434;28;20097;-69
2022/09/29 01:50:01;;;;;;;4.10;3.00;;;7.20;99.90;;;;;;4975380;28;20047;-68
2022/09/29 01:52:31;;;;;;;4.00;2.92;;;7.30;99.90;;;;;;4974074;28;20047;-69
2022/09/29 01:55:04;;;;;;;2.90;2.60;;;7.10;99.90;;;;;;4975151;28;20054;-69
2022/09/29 01:57:44;;;;;;;4.30;3.08;;;7.10;99.90;;;;;;4958170;28;20129;-68
2022/09/29 02:00:14;;;;;;;3.13;2.80;;;7.10;99.90;;;;;;4975163;28;20097;-69
2022/09/29 02:02:51;;;;;;;3.60;3.03;;;7.10;99.90;;;;;;4975146;28;20524;-68
2022/09/29 02:05:21;;;;;;;3.38;3.08;;;6.90;99.90;;;;;;4975022;28;20043;-69
2022/09/29 02:07:49;;;;;;;3.45;3.15;;;7.10;99.90;;;;;;4974321;28;20042;-69
2022/09/29 02:10:20;;;;;;;3.45;3.15;;;7.50;99.90;;;;;;4974087;28;20047;-69
2022/09/29 02:12:50;;;;;;;3.88;3.38;;;7.70;99.90;;;;;;4974916;28;20051;-69
2022/09/29 02:15:22;;;;;;;4.53;3.90;;;7.00;99.90;;;;;;4975240;28;20050;-69
2022/09/29 02:17:51;;;;;;;5.77;4.23;;;7.00;99.90;;;;;;4974895;28;20047;-68
2022/09/29 02:20:17;;;;;;;4.03;3.53;;;7.20;99.90;;;;;;4973497;28;20054;-69
2022/09/29 02:22:43;;;;;;;4.93;3.60;;;7.30;99.90;;;;;;4974713;28;20058;-69
2022/09/29 02:25:12;;;;;;;3.55;3.22;;;7.30;99.90;;;;;;4973675;28;20484;-69
2022/09/29 02:27:39;;;;;;;3.45;3.15;;;7.20;99.90;;;;;;4974898;28;20098;-69
2022/09/29 02:30:06;;;;;;;5.90;3.33;;;7.00;99.90;;;;;;4974541;28;20050;-69
2022/09/29 02:32:34;;;;;;;4.70;3.55;;;6.90;99.90;;;;;;4974316;28;20455;-69
2022/09/29 02:35:02;;;;;;;4.38;3.97;;;7.60;99.90;;;;;;4973441;28;20474;-69
2022/09/29 02:38:01;;;;;;;4.60;3.38;;;7.00;99.90;;;;;;4973239;28;20046;-69
2022/09/29 02:40:54;;;;;;;8.20;4.60;;;6.90;99.90;;;;;;4974083;28;20394;-69
2022/09/29 02:43:31;;;;;;;5.22;3.97;;;7.00;99.90;;;;;;4974726;28;20047;-69
2022/09/29 02:46:33;;;;;;;5.53;3.97;;;6.90;99.90;;;;;;4974772;28;20514;-69
2022/09/29 02:49:28;;;;;;;6.35;4.32;;;7.30;99.90;;;;;;4974484;28;20109;-69
2022/09/29 02:52:12;;;;;;;4.15;3.70;;;6.90;99.90;;;;;;4974753;28;20522;-69
2022/09/29 02:54:37;;;;;;;5.00;3.75;;;6.70;99.90;;;;;;4973695;28;20391;-69
2022/09/29 02:57:12;;;;;;;4.43;3.83;;;6.90;99.90;;;;;;4974329;28;20263;-69
2022/09/29 02:59:44;;;;;;;5.40;3.80;;;6.90;99.90;;;;;;4974417;28;20507;-69
2022/09/29 03:02:09;;;;;;;4.18;3.72;;;7.10;99.90;;;;;;4974324;28;20491;-69
2022/09/29 03:04:35;;;;;;;4.65;3.83;;;6.80;99.90;;;;;;4974359;28;20094;-69
2022/09/29 03:07:00;;;;;;;4.18;3.78;;;7.00;99.90;;;;;;4974194;28;20134;-69
2022/09/29 03:09:27;;;;;;;4.38;3.58;;;7.10;99.90;;;;;;4973611;28;20085;-69
2022/09/29 03:11:52;;;;;;;4.38;3.45;;;7.10;99.90;;;;;;4973163;28;20503;-69
2022/09/29 03:14:18;;;;;;;4.20;3.47;;;7.10;99.90;;;;;;4974243;28;20101;-69
2022/09/29 03:16:44;;;;;;;3.92;3.53;;;7.20;99.90;;;;;;4974093;28;20050;-69
2022/09/29 03:19:10;;;;;;;4.88;3.92;;;7.90;99.90;;;;;;4974336;28;20049;-69
2022/09/29 03:21:35;;;;;;;5.30;3.83;;;6.90;99.90;;;;;;4974216;28;20050;-68
2022/09/29 03:24:01;;;;;;;5.72;4.28;;;7.10;99.90;;;;;;4975668;28;20043;-68
2022/09/29 03:26:29;;;;;;;5.43;4.13;;;6.70;99.90;;;;;;4977869;28;20055;-69
2022/09/29 03:28:54;;;;;;;5.65;4.38;;;7.60;99.90;;;;;;4977004;28;20089;-69
2022/09/29 03:31:20;;;;;;;4.65;3.50;;;6.90;99.90;;;;;;4976554;28;20152;-69
2022/09/29 03:33:46;;;;;;;5.03;3.70;;;6.90;99.90;;;;;;4976699;28;20055;-68
2022/09/29 03:36:12;;;;;;;5.95;4.38;;;6.80;99.90;;;;;;4977704;28;20047;-68
2022/09/29 03:38:38;;;;;;;4.43;3.70;;;6.90;99.90;;;;;;4977245;28;20373;-68
2022/09/29 03:41:05;;;;;;;5.75;3.83;;;7.60;99.90;;;;;;4977622;28;20047;-68
2022/09/29 03:43:31;;;;;;;4.90;4.13;;;6.80;99.90;;;;;;4977430;28;20109;-68
2022/09/29 03:45:57;;;;;;;6.70;4.38;;;7.10;99.90;;;;;;4976049;28;20526;-68
2022/09/29 03:48:24;;;;;;;5.60;4.25;;;7.00;99.90;;;;;;4977620;28;20093;-68
2022/09/29 03:50:50;;;;;;;5.03;4.53;;;7.40;99.90;;;;;;4977699;28;20042;-68
2022/09/29 03:53:17;;;;;;;5.70;4.10;;;6.70;99.90;;;;;;4976321;28;20055;-68
2022/09/29 03:55:47;;;;;;;6.30;5.00;;;6.60;99.90;;;;;;4977269;28;20043;-68
2022/09/29 03:58:14;;;;;;;5.72;4.45;;;7.30;99.90;;;;;;4977279;28;20106;-68
2022/09/29 04:00:39;;;;;;;7.05;5.45;;;6.70;99.90;;;;;;4977450;28;20051;-68
2022/09/29 04:03:05;;;;;;;8.25;5.05;;;7.30;99.90;;;;;;4977401;28;20054;-68
2022/09/29 04:05:37;;;;;;;4.78;4.28;;;6.80;99.90;;;;;;4960204;28;20053;-68
2022/09/29 04:08:07;;;;;;;6.13;4.53;;;6.90;99.90;;;;;;4976654;28;20129;-68
2022/09/29 04:10:34;;;;;;;5.30;3.85;;;6.20;99.90;;;;;;4960001;28;20129;-69
2022/09/29 04:13:00;;;;;;;5.45;4.13;;;6.40;99.90;;;;;;4977136;28;20081;-68
2022/09/29 04:15:26;;;;;;;4.25;3.78;;;6.40;99.90;;;;;;4977098;28;20074;-68
2022/09/29 04:17:51;;;;;;;5.72;4.30;;;6.70;99.90;;;;;;4975821;28;20047;-68
2022/09/29 04:20:17;;;;;;;4.90;3.75;;;6.40;99.90;;;;;;4977153;28;20085;-68
2022/09/29 04:22:43;;;;;;;4.30;3.90;;;6.50;99.90;;;;;;4959760;28;20051;-68
2022/09/29 04:25:09;;;;;;;4.53;3.92;;;6.70;99.90;;;;;;4976723;28;20035;-68
2022/09/29 04:27:34;;;;;;;5.38;4.28;;;6.60;99.90;;;;;;4975671;28;20063;-68
2022/09/29 04:30:00;;;;;;;6.80;3.65;;;6.40;99.90;;;;;;4975679;28;20051;-68
2022/09/29 04:32:26;;;;;;;4.97;3.72;;;6.30;99.90;;;;;;4976581;28;20126;-68
2022/09/29 04:34:52;;;;;;;3.97;3.53;;;6.50;99.90;;;;;;4958299;28;20053;-68
2022/09/29 04:37:17;;;;;;;4.32;3.85;;;6.50;99.90;;;;;;4975884;28;20061;-68
2022/09/29 04:39:43;;;;;;;4.30;3.60;;;6.50;99.90;;;;;;4975545;28;20086;-68
2022/09/29 04:42:09;;;;;;;4.72;3.33;;;6.30;99.90;;;;;;4976293;28;20043;-68
2022/09/29 04:44:34;;;;;;;4.30;3.90;;;6.20;99.90;;;;;;4960118;28;20051;-68
2022/09/29 04:47:00;;;;;;;4.68;4.25;;;6.60;99.90;;;;;;4975701;28;20130;-68
2022/09/29 04:49:25;;;;;;;3.75;3.42;;;6.40;99.90;;;;;;4976596;28;20518;-68
2022/09/29 04:51:51;;;;;;;4.80;4.25;;;6.30;99.90;;;;;;4976605;28;20458;-68
2022/09/29 04:54:17;;;;;;;5.47;4.10;;;6.40;99.90;;;;;;4975482;28;20054;-68
2022/09/29 04:56:42;;;;;;;5.15;4.65;;;6.50;99.90;;;;;;4975096;28;20043;-68
2022/09/29 04:59:09;;;;;;;4.47;3.85;;;6.60;99.90;;;;;;4975520;28;20050;-68
2022/09/29 05:01:35;;;;;;;3.47;3.17;;;6.40;99.90;;;;;;4976209;28;20047;-68
2022/09/29 05:04:01;;;;;;;3.67;3.38;;;6.30;99.90;;;;;;4975097;28;20043;-68
2022/09/29 05:06:27;;;;;;;3.28;2.97;;;6.90;99.90;;;;;;4975196;28;20051;-68
2022/09/29 05:08:53;;;;;;;3.95;2.90;;;6.50;99.90;;;;;;4975522;28;20054;-68
2022/09/29 05:11:18;;;;;;;4.80;3.28;;;6.70;99.90;;;;;;4958919;28;20046;-68
2022/09/29 05:13:49;;;;;;;2.95;2.70;;;6.50;99.90;;;;;;4959014;28;20479;-68
2022/09/29 05:16:15;;;;;;;3.63;3.22;;;6.30;99.90;;;;;;4976295;28;20094;-69
2022/09/29 05:18:41;;;;;;;5.07;3.30;;;6.50;99.90;;;;;;4975908;28;20545;-68
2022/09/29 05:21:07;;;;;;;3.53;3.22;;;6.30;99.90;;;;;;4974849;28;20046;-68
2022/09/29 05:23:33;;;;;;;6.72;3.13;;;6.50;99.90;;;;;;4975701;28;20487;-68
2022/09/29 05:26:07;;;;;;;8.60;3.55;;;6.30;99.90;;;;;;4975525;28;20050;-68
2022/09/29 05:28:33;;;;;;;5.05;3.70;;;7.00;99.90;;;;;;4975680;28;20546;-68
2022/09/29 05:31:07;;;;;;;3.97;3.00;;;6.30;99.90;;;;;;4975986;28;20185;-68
2022/09/29 05:33:34;;;;;;;5.32;3.95;;;6.30;99.90;;;;;;4958224;28;20506;-68
2022/09/29 05:36:02;;;;;;;3.95;3.55;;;6.60;99.90;;;;;;4975436;28;20121;-68
2022/09/29 05:38:28;;;;;;;4.22;3.83;;;6.60;99.90;;;;;;4974816;28;20046;-68
2022/09/29 05:40:54;;;;;;;4.28;3.88;;;6.50;99.90;;;;;;4975620;28;20058;-68
2022/09/29 05:43:20;;;;;;;4.47;4.07;;;6.50;99.90;;;;;;4974359;28;20483;-68
2022/09/29 05:45:45;;;;;;;4.85;3.45;;;6.60;99.90;;;;;;4975609;28;20125;-68
2022/09/29 05:48:11;;;;;;;4.55;4.15;;;6.40;99.90;;;;;;4974989;28;20106;-68
2022/09/29 05:50:40;;;;;;;4.43;4.00;;;6.20;99.90;;;;;;4975253;28;20046;-68
2022/09/29 05:53:09;;;;;;;5.45;4.95;;;6.30;99.90;;;;;;4975166;28;20558;-68
2022/09/29 05:55:36;;;;;;;4.93;4.32;;;6.90;99.90;;;;;;4975102;28;20579;-68
2022/09/29 05:58:03;;;;;;;4.78;4.38;;;6.40;99.90;;;;;;4975520;28;20053;-68
2022/09/29 06:00:30;;;;;;;4.95;4.55;;;6.30;99.90;;;;;;4975174;28;20547;-68
2022/09/29 06:02:59;;;;;;;5.13;4.63;;;6.30;99.90;;;;;;4974261;28;20448;-68
2022/09/29 06:05:25;;;;;;;5.18;4.60;;;6.20;99.90;;;;;;4974857;28;20047;-69
2022/09/29 06:07:51;;;;;;;4.82;4.43;;;6.20;99.90;;;;;;4974665;28;20162;-68
2022/09/29 06:10:17;;;;;;;4.95;4.45;;;6.70;99.90;;;;;;4975159;28;20399;-68
2022/09/29 06:12:43;;;;;;;5.63;4.82;;;6.40;99.90;;;;;;4958055;28;20082;-68
2022/09/29 06:15:10;;;;;;;5.55;4.82;;;6.50;99.90;;;;;;4973976;28;20062;-68
2022/09/29 06:17:36;;;;;;;5.35;4.85;;;6.20;99.90;;;;;;4957910;28;20046;-68
2022/09/29 06:20:04;;;;;;;7.03;5.50;;;6.60;99.90;;;;;;4974758;28;20133;-68
2022/09/29 06:22:30;;;;;;;6.28;5.00;;;6.20;99.90;;;;;;4974966;28;20051;-68
2022/09/29 06:24:56;;;;;;;5.57;4.97;;;6.50;99.90;;;;;;4974799;28;20198;-68
2022/09/29 06:27:22;;;;;;;5.97;5.13;;;6.20;99.90;;;;;;4974822;28;20393;-68
2022/09/29 06:29:47;;;;;;;6.70;5.63;;;6.60;99.90;;;;;;4973936;28;20073;-68
2022/09/29 06:32:13;;;;;;;6.43;5.80;;;6.50;99.90;;;;;;4974627;28;20050;-68
2022/09/29 06:37:33;;;;;;;7.68;5.28;;;6.60;99.90;;;;;;4974325;28;20411;-68
2022/09/29 06:37:34;;;;;;;5.47;4.88;;;6.90;99.90;;;;;;4974155;28;20058;-68
2022/09/29 06:40:03;;;;;;;5.22;4.72;;;6.30;99.90;;;;;;4974786;28;20051;-68
2022/09/29 06:42:29;;;;;;;5.30;4.80;;;7.30;99.90;;;;;;4973414;28;20050;-68
2022/09/29 06:44:55;;;;;;;6.43;5.05;;;6.40;99.90;;;;;;4974675;28;20056;-68
2022/09/29 06:47:21;;;;;;;6.43;5.75;;;6.70;99.90;;;;;;4974264;28;20055;-68
2022/09/29 06:49:49;;;;;;;6.95;5.78;;;6.70;99.90;;;;;;4957210;28;20056;-68
2022/09/29 06:52:15;;;;;;;6.70;5.60;;;6.80;99.90;;;;;;4974284;28;20499;-68
2022/09/29 06:54:41;;;;;;;6.32;5.55;;;6.60;99.90;;;;;;4974571;28;20043;-68
2022/09/29 06:57:07;;;;;;;6.80;6.07;;;6.60;99.90;;;;;;4974458;28;20047;-68
2022/09/29 06:59:33;;;;;;;8.60;6.30;;;6.90;99.90;;;;;;4976914;28;20430;-68
2022/09/29 07:01:59;;;;;;;5.97;5.38;;;6.60;99.90;;;;;;4978386;28;20053;-68
2022/09/29 07:04:25;;;;;;;7.15;5.82;;;6.60;99.90;;;;;;4978358;28;20043;-68
2022/09/29 07:06:51;;;;;;;8.00;5.63;;;7.00;99.90;;;;;;4977154;28;20050;-68
2022/09/29 07:09:17;;;;;;;7.68;6.00;;;6.90;99.90;;;;;;4977746;28;20177;-67
2022/09/29 07:11:49;;;;;;;8.57;6.80;;;7.00;99.90;;;;;;4960947;28;20058;-68
2022/09/29 07:14:16;;;;;;;10.77;7.43;;;7.20;99.90;;;;;;4977147;28;20049;-68
2022/09/29 07:16:42;;;;;;;7.93;7.13;;;7.10;99.90;;;;;;4977975;28;20058;-69
2022/09/29 07:19:08;;;;;;;7.40;6.70;;;6.80;99.90;;;;;;4978269;28;20050;-68
2022/09/29 07:21:34;;;;;;;10.18;8.27;;;7.00;99.90;;;;;;4978057;28;20061;-67
2022/09/29 07:24:00;;;;;;;8.77;7.32;;;7.00;99.90;;;;;;4977140;28;20047;-68
2022/09/29 07:26:25;;;;;;;7.50;6.70;;;7.10;99.90;;;;;;4977952;28;20490;-68
2022/09/29 07:28:51;;;;;;;8.32;6.95;;;7.20;99.90;;;;;;4977961;28;20086;-68
2022/09/29 07:31:19;;;;;;;7.32;6.53;;;7.40;99.90;;;;;;4976927;28;20058;-68
2022/09/29 07:33:46;;;;;;;8.23;7.15;;;7.20;99.90;;;;;;4976711;28;20141;-68
2022/09/29 07:36:13;;;;;;;10.70;7.88;;;7.30;99.90;;;;;;4977938;28;20514;-67
2022/09/29 07:38:40;;;;;;;9.45;7.38;;;7.50;99.90;;;;;;4977411;28;20509;-67
2022/09/29 07:41:09;;;;;;;10.00;7.47;;;7.50;99.90;;;;;;4977811;28;20130;-68
2022/09/29 07:43:35;;;;;;;10.45;8.45;;;7.60;99.90;;;;;;4977657;28;20047;-67
2022/09/29 07:46:01;;;;;;;9.20;7.90;;;7.70;99.90;;;;;;4977803;28;20065;-67
2022/09/29 07:48:28;;;;;;;9.13;7.75;;;7.50;99.90;;;;;;4976621;28;20046;-68
2022/09/29 07:51:00;;;;;;;12.75;8.95;;;7.50;99.90;;;;;;4978070;28;20050;-68
2022/09/29 07:53:26;;;;;;;10.40;8.75;;;7.60;99.90;;;;;;4977575;28;20105;-69
2022/09/29 07:55:52;;;;;;;9.93;8.30;;;7.90;99.90;;;;;;4976663;28;20411;-67
2022/09/29 07:58:17;;;;;;;12.05;9.40;;;8.00;99.90;;;;;;4977395;28;20050;-68
2022/09/29 08:00:43;;;;;;;12.82;8.98;;;7.80;99.90;;;;;;4977781;28;20046;-68
2022/09/29 08:03:09;;;;;;;10.98;8.57;;;8.00;99.90;;;;;;4977514;28;20062;-68
2022/09/29 08:05:35;;;;;;;11.07;8.25;;;8.20;99.90;;;;;;4976180;28;20086;-68
2022/09/29 08:08:03;;;;;;;11.75;9.15;;;8.00;99.90;;;;;;4976021;28;20047;-68
2022/09/29 08:10:29;;;;;;;11.73;8.45;;;7.70;99.90;;;;;;4976955;28;20051;-67
2022/09/29 08:12:55;;;;;;;12.15;8.63;;;8.30;99.90;;;;;;4975969;28;20042;-68
2022/09/29 08:15:22;;;;;;;11.43;8.65;;;8.20;99.90;;;;;;4976441;28;20118;-68
2022/09/29 08:17:50;;;;;;;13.60;9.85;;;8.10;99.90;;;;;;4984952;28;20046;-68
2022/09/29 08:20:16;;;;;;;12.02;8.68;;;8.20;99.90;;;;;;4987391;28;20077;-68
2022/09/29 08:22:41;;;;;;;13.27;9.20;;;8.40;99.90;;;;;;4985940;28;20074;-68
2022/09/29 08:25:07;;;;;;;10.98;8.55;;;8.30;99.90;;;;;;4968724;28;20409;-69
2022/09/29 08:27:33;;;;;;;9.57;8.45;;;8.40;99.90;;;;;;4987370;28;20057;-68
2022/09/29 08:29:59;;;;;;;12.05;9.38;;;8.60;99.90;;;;;;4970239;28;20046;-68
2022/09/29 08:32:25;;;;;;;12.13;9.10;;;8.70;99.90;;;;;;4984964;28;20078;-68
2022/09/29 08:34:50;;;;;;;16.27;11.00;;;8.50;99.90;;;;;;4984434;28;20089;-68
2022/09/29 08:37:16;;;;;;;12.23;9.45;;;8.70;99.90;;;;;;4984436;28;20043;-67
2022/09/29 08:39:43;;;;;;;13.20;9.95;;;8.70;99.90;;;;;;4981603;28;20084;-68
2022/09/29 08:42:24;;;;;;;13.77;10.45;;;8.80;99.90;;;;;;4991467;28;20486;-68
2022/09/29 08:44:57;;;;;;;12.50;10.02;;;8.80;99.90;;;;;;4995088;28;20085;-67
2022/09/29 08:47:27;;;;;;;;;;;9.00;99.90;;;;;;4996686;28;20058;-68
2022/09/29 08:50:03;;;;;;;14.35;10.75;;;9.00;99.90;;;;;;4996061;28;19922;-67
2022/09/29 08:52:35;;;;;;;15.07;10.63;;;9.30;99.90;;;;;;4994875;28;20517;-68
2022/09/29 08:55:48;;;;;;;15.15;11.68;;;9.20;99.90;;;;;;4995180;28;20054;-68
2022/09/29 08:58:15;;;;;;;13.82;10.45;;;9.20;99.90;;;;;;4990177;28;20058;-68
2022/09/29 09:01:00;;;;;;;14.45;11.40;;;9.30;99.90;;;;;;4995568;28;20050;-68
2022/09/29 09:03:47;;;;;;;14.63;10.95;;;9.60;99.90;;;;;;4995870;28;20524;-68
2022/09/29 09:06:38;;;;;;;16.40;11.48;;;9.50;99.90;;;;;;4994814;28;20053;-67
2022/09/29 09:09:13;;;;;;;15.80;10.43;;;9.50;99.90;;;;;;4993534;28;20046;-68
2022/09/29 09:12:04;;;;;;;12.65;9.95;;;9.60;99.90;;;;;;4995681;28;20133;-68
2022/09/29 09:15:07;;;;;;;15.02;10.95;;;9.70;99.90;;;;;;4995545;28;20092;-67
2022/09/29 09:18:09;;;;;;;14.73;11.00;;;9.70;99.90;;;;;;4994264;28;20050;-68
2022/09/29 09:20:53;;;;;;;12.80;9.80;;;9.90;99.90;;;;;;4978434;28;20125;-67
2022/09/29 09:23:44;;;;;;;10.63;8.35;;;9.90;99.90;;;;;;4995302;28;20058;-68
2022/09/29 09:26:12;;;;;;;8.38;7.30;;;10.10;99.90;;;;;;4994056;28;20047;-68
2022/09/29 09:29:02;;;;;;;11.93;7.65;;;10.30;99.90;;;;;;4995584;28;20054;-67
2022/09/29 09:32:03;;;;;;;7.22;5.32;;;10.40;99.90;;;;;;4995351;28;20129;-67
2022/09/29 09:34:43;;;;;;;5.97;4.45;;;10.20;99.90;;;;;;4994893;28;20057;-68
2022/09/29 09:37:27;;;;;;;5.47;3.13;;;10.30;99.90;;;;;;4994120;28;20085;-68
2022/09/29 09:40:08;;;;;;;4.80;3.38;;;10.50;99.90;;;;;;4993435;28;20057;-67
2022/09/29 09:42:38;;;;;;;4.03;3.25;;;10.50;99.90;;;;;;4993838;28;20513;-67
2022/09/29 09:45:21;;;;;;;4.50;3.70;;;10.50;99.90;;;;;;4994877;28;20046;-68
2022/09/29 09:47:48;;;;;;;9.23;5.32;;;10.70;99.90;;;;;;4993956;28;20112;-67
2022/09/29 09:50:16;;;;;;;7.53;3.72;;;10.70;99.90;;;;;;4994847;28;20073;-67
2022/09/29 09:53:04;;;;;;;4.07;3.60;;;10.80;99.90;;;;;;4993674;28;20170;-69
2022/09/29 09:55:35;;;;;;;5.03;3.30;;;10.90;99.90;;;;;;4995446;28;20058;-68
2022/09/29 09:58:32;;;;;;;4.05;3.10;;;11.00;99.90;;;;;;4994793;28;20104;-67
2022/09/29 10:01:05;;;;;;;7.30;3.25;;;11.10;99.90;;;;;;4994650;28;20050;-67
2022/09/29 10:03:32;;;;;;;2.55;1.70;;;11.00;99.90;;;;;;4994841;28;20051;-67
2022/09/29 10:05:58;;;;;;;2.25;1.20;;;11.30;99.90;;;;;;4993429;28;20498;-66
2022/09/29 10:08:24;;;;;;;2.33;1.60;;;11.20;99.90;;;;;;4993325;28;20086;-67
2022/09/29 10:10:50;;;;;;;3.17;2.53;;;11.20;99.90;;;;;;4993264;28;20058;-67
2022/09/29 10:13:16;;;;;;;2.55;1.80;;;11.40;99.90;;;;;;4993439;28;20054;-68
2022/09/29 10:15:58;;;;;;;2.45;1.88;;;11.40;99.90;;;;;;4994287;28;20478;-69
2022/09/29 10:18:41;;;;;;;4.22;1.00;;;11.40;99.90;;;;;;4990459;28;20042;-68
2022/09/29 10:21:19;;;;;;;2.90;1.40;;;11.60;99.90;;;;;;4974378;28;20376;-67
2022/09/29 10:23:53;;;;;;;1.88;0.93;;;11.50;99.90;;;;;;4974180;28;20109;-67
2022/09/29 10:26:37;;;;;;;1.63;1.00;;;11.50;99.90;;;;;;4972833;28;20556;-68
2022/09/29 10:29:20;;;;;;;1.80;0.90;;;11.70;99.90;;;;;;4973304;28;20051;-67
2022/09/29 10:32:17;;;;;;;1.50;1.10;;;11.70;99.90;;;;;;4973057;28;20039;-67
2022/09/29 10:34:53;;;;;;;2.88;1.65;;;11.90;99.90;;;;;;4962278;28;20053;-67
2022/09/29 10:37:24;;;;;;;2.03;0.90;;;11.70;99.90;;;;;;4974276;28;20121;-67
2022/09/29 10:39:50;;;;;;;1.65;1.02;;;12.00;99.90;;;;;;4972503;28;20050;-67
2022/09/29 10:42:16;;;;;;;1.52;0.85;;;11.90;99.90;;;;;;4972793;28;20376;-67
2022/09/29 10:44:43;;;;;;;0.70;0.50;;;12.50;99.90;;;;;;4973842;28;20054;-67
2022/09/29 10:47:14;;;;;;;1.27;0.70;;;12.00;99.90;;;;;;4972786;28;20051;-68
2022/09/29 10:49:40;;;;;;;2.35;0.77;;;12.00;99.90;;;;;;4972820;28;20403;-67
2022/09/29 10:52:16;;;;;;;1.67;0.70;;;12.00;99.90;;;;;;4993446;28;20042;-66
2022/09/29 10:55:04;;;;;;;1.25;0.68;;;12.10;99.90;;;;;;4993448;28;20049;-66
2022/09/29 10:57:33;;;;;;;1.40;0.70;;;12.20;99.90;;;;;;4993283;28;20125;-67
2022/09/29 10:59:59;;;;;;;0.70;0.50;;;12.30;99.90;;;;;;4993596;28;20435;-66
2022/09/29 11:02:35;;;;;;;1.50;0.70;;;12.40;99.90;;;;;;4993412;28;20058;-67
2022/09/29 11:05:23;;;;;;;0.80;0.60;;;12.40;99.90;;;;;;4993304;28;20046;-67
2022/09/29 11:07:51;;;;;;;0.90;0.55;;;12.40;99.90;;;;;;4992903;28;20054;-67
2022/09/29 11:10:31;;;;;;;0.80;0.70;;;12.50;99.90;;;;;;4993189;28;20109;-67
2022/09/29 11:12:59;;;;;;;1.45;0.40;;;12.50;99.90;;;;;;4993399;28;20043;-67
2022/09/29 11:15:38;;;;;;;0.70;0.40;;;12.60;99.90;;;;;;4993234;28;20050;-67
2022/09/29 11:18:36;;;;;;;0.63;0.35;;;12.70;99.90;;;;;;4993225;28;20046;-67
2022/09/29 11:21:49;;;;;;;0.90;0.40;;;12.90;99.90;;;;;;4973096;28;20090;-67
2022/09/29 11:24:27;;;;;;;1.48;0.50;;;12.90;99.90;;;;;;4972540;28;20050;-67
2022/09/29 11:27:13;;;;;;;3.15;0.73;;;12.80;99.90;;;;;;4973985;28;20086;-67
2022/09/29 11:30:06;;;;;;;0.63;0.30;;;13.00;99.90;;;;;;4973824;28;20051;-67
2022/09/29 11:33:04;;;;;;;2.10;0.30;;;12.90;99.90;;;;;;4974463;28;20047;-68
2022/09/29 11:35:44;;;;;;;1.83;0.50;;;12.70;99.90;;;;;;4970809;28;20100;-68
2022/09/29 11:38:39;;;;;;;0.82;0.38;;;13.00;99.90;;;;;;4973337;28;20199;-68
2022/09/29 11:41:22;;;;;;;0.50;0.20;;;13.00;99.90;;;;;;4972499;28;20121;-68
2022/09/29 11:44:02;;;;;;;0.30;0.20;;;13.10;99.90;;;;;;4973824;28;20061;-67
2022/09/29 11:46:44;;;;;;;0.47;0.20;;;13.20;99.90;;;;;;4977714;28;20469;-67
2022/09/29 11:49:54;;;;;;;1.30;0.30;;;13.40;99.90;;;;;;4975583;28;20047;-67
2022/09/29 11:52:40;;;;;;;1.00;0.20;;;13.40;99.90;;;;;;4957934;28;20124;-68
2022/09/29 11:55:27;;;;;;;1.42;0.20;;;13.50;99.90;;;;;;4977426;28;20050;-67
2022/09/29 11:57:56;;;;;;;0.63;0.20;;;13.50;99.90;;;;;;4977407;28;20046;-68
2022/09/29 12:00:49;;;;;;;1.10;0.20;;;13.70;99.90;;;;;;4977245;28;20062;-68
2022/09/29 12:03:32;;;;;;;;;;;13.70;99.90;;;;;;4976814;28;20446;-67
2022/09/29 12:06:30;;;;;;;0.30;0.20;;;13.80;99.90;;;;;;4976546;28;19977;-67
2022/09/29 12:09:44;;;;;;;1.27;0.32;;;13.90;99.90;;;;;;4976946;28;20122;-68
2022/09/29 12:13:08;;;;;;;0.80;0.20;;;13.80;99.90;;;;;;4992862;28;20098;-68
2022/09/29 12:15:46;;;;;;;0.40;0.30;;;13.80;99.90;;;;;;4974547;28;20520;-68
2022/09/29 12:18:23;;;;;;;1.33;0.38;;;13.60;99.90;;;;;;4995682;28;20055;-68
2022/09/29 12:20:52;;;;;;;0.65;0.20;;;13.70;99.90;;;;;;4996564;28;20509;-67
2022/09/29 12:23:22;;;;;;;0.93;0.30;;;14.00;99.90;;;;;;4979387;28;20096;-68
2022/09/29 12:26:06;;;;;;;0.80;0.55;;;13.40;99.90;;;;;;4996424;28;20049;-68
2022/09/29 12:28:41;;;;;;;0.40;0.30;;;13.40;99.90;;;;;;4996399;28;20457;-68
2022/09/29 12:31:25;;;;;;;1.15;0.38;;;13.30;99.90;;;;;;4996349;28;20138;-68
2022/09/29 12:34:03;;;;;;;0.20;0.20;;;13.20;99.90;;;;;;4996892;28;20062;-68
2022/09/29 12:36:54;;;;;;;0.45;0.20;;;13.20;99.90;;;;;;4974371;28;20407;-68
2022/09/29 12:40:01;;;;;;;0.40;0.20;;;13.20;99.90;;;;;;4975672;28;20057;-68
2022/09/29 12:42:45;;;;;;;0.20;0.20;;;13.40;99.90;;;;;;4906854;28;20575;-69
2022/09/29 12:45:27;;;;;;;0.28;0.20;;;13.10;99.90;;;;;;4975857;28;20042;-68
2022/09/29 12:48:16;;;;;;;0.75;0.13;;;13.10;99.90;;;;;;4976000;28;20380;-68
2022/09/29 12:50:49;;;;;;;0.30;0.20;;;13.10;99.90;;;;;;4976022;28;20125;-68
2022/09/29 12:53:27;;;;;;;1.02;0.20;;;13.10;99.90;;;;;;4975729;28;20514;-69
2022/09/29 12:56:04;;;;;;;1.48;0.30;;;13.00;99.90;;;;;;4994292;28;20050;-68
2022/09/29 12:58:44;;;;;;;0.20;0.20;;;13.00;99.90;;;;;;4995159;28;20125;-68
2022/09/29 13:01:25;;;;;;;1.95;0.30;;;13.00;99.90;;;;;;4994253;28;20101;-68
2022/09/29 13:04:09;;;;;;;0.30;0.25;;;13.00;99.90;;;;;;4995608;28;20454;-69
2022/09/29 13:06:44;;;;;;;0.70;0.32;;;13.00;99.90;;;;;;4991581;28;20044;-68
2022/09/29 13:09:45;;;;;;;0.60;0.40;;;13.10;99.90;;;;;;4994277;28;20518;-69
2022/09/29 13:13:02;;;;;;;0.90;0.47;;;13.00;99.90;;;;;;4994951;28;20050;-68
2022/09/29 13:15:49;;;;;;;2.33;0.60;;;13.00;99.90;;;;;;4951008;28;20200;-68
2022/09/29 13:18:20;;;;;;;3.22;0.50;;;13.00;99.90;;;;;;4995146;28;20222;-68
2022/09/29 13:21:12;;;;;;;1.85;0.68;;;13.00;99.90;;;;;;4994770;28;20089;-68
2022/09/29 13:24:19;;;;;;;0.90;0.50;;;13.10;99.90;;;;;;4989720;28;20489;-68
2022/09/29 13:26:48;;;;;;;1.10;0.50;;;13.10;99.90;;;;;;4993782;28;20398;-68